M-v Safiye Ana — TCCW9 — position and weather

sailwx.info

Track history (hours):
 
Tides and Currents Weather Stations Pressure Air Temp Water Temp Dewpoint Dewpoint Depression Visibility Wind Speed Wind Dir Waves Ship Positions

M-v Safiye Ana

Last reported at 2018-Jun-20 02:55 UTC. Time now 2018-Jun-20 03:23 UTC.
Position N 41°22' E 002°10'.

Length 87 m; draft 5.9 m.

Type: Cargo ship. MMSI: 271000770.

Date/timePositionNaut miles runAvg speedWind from/ knotsBaromVisibWave heightAir tempDewpointWater temp
2018-Jun-20 02:55N 41°22' E 002°10'0 0.0
2018-Jun-20 02:25N 41°22' E 002°10'0 0.0
2018-Jun-20 01:58N 41°22' E 002°10'0 0.0
2018-Jun-20 01:24N 41°22' E 002°10'0 0.0
2018-Jun-20 00:54N 41°22' E 002°10'0 0.0
2018-Jun-20 00:30N 41°22' E 002°10'0 0.0
2018-Jun-20 00:00N 41°22' E 002°10'0 0.0
2018-Jun-19 23:30N 41°22' E 002°10'0 0.0
2018-Jun-19 22:59N 41°22' E 002°10'0 0.0
2018-Jun-19 22:29N 41°22' E 002°10'0 0.0
2018-Jun-19 21:59N 41°22' E 002°10'0 0.0
2018-Jun-19 21:23N 41°22' E 002°10'0 0.0
2018-Jun-19 20:58N 41°22' E 002°10'0 0.0
2018-Jun-19 20:28N 41°22' E 002°10'0 0.0
2018-Jun-19 19:58N 41°22' E 002°10'0 0.0
2018-Jun-19 19:22N 41°22' E 002°10'0 0.0
2018-Jun-19 18:55N 41°22' E 002°10'0 0.0
2018-Jun-19 18:27N 41°22' E 002°10'1 1.3
2018-Jun-19 18:00N 41°21' E 002°10'3 5.8
2018-Jun-19 17:30N 41°18' E 002°11'4 7.8
2018-Jun-19 17:01N 41°15' E 002°14'15 9.4
2018-Jun-19 15:25N 41°06' E 002°29'910.0
2018-Jun-19 14:33N 41°00' E 002°38'110.2
2018-Jun-19 14:27N 40°59' E 002°39'510.2
2018-Jun-19 14:00N 40°56' E 002°44'  
2018-Jun-14 12:45N 36°56' E 023°38'8 9.7
2018-Jun-14 11:57N 37°02' E 023°43'4 9.6
2018-Jun-14 11:30N 37°06' E 023°46'10 9.7
2018-Jun-14 10:31N 37°14' E 023°52'010.1
2018-Jun-14 10:30N 37°14' E 023°52'  
2018-Jun-10 04:39N 40°43' E 029°22'1 8.6
2018-Jun-10 04:30N 40°43' E 029°20'6 9.5
2018-Jun-10 03:53N 40°42' E 029°12'4 9.9
2018-Jun-10 03:26N 40°42' E 029°06'  
Track history (hours):
 
Tides and Currents Weather Stations Pressure Air Temp Water Temp Dewpoint Dewpoint Depression Visibility Wind Speed Wind Dir Waves Ship Positions

M-v Safiye Ana

Last reported at 2018-Jun-20 02:55 UTC. Time now 2018-Jun-20 03:23 UTC.
Position N 41°22' E 002°10'.

Length 87 m; draft 5.9 m.

Type: Cargo ship. MMSI: 271000770.

Date/timePositionNaut miles runAvg speedWind from/ knotsBaromVisibWave heightAir tempDewpointWater temp
2018-Jun-20 02:55N 41°22' E 002°10'0 0.0
2018-Jun-20 02:25N 41°22' E 002°10'0 0.0
2018-Jun-20 01:58N 41°22' E 002°10'0 0.0
2018-Jun-20 01:24N 41°22' E 002°10'0 0.0
2018-Jun-20 00:54N 41°22' E 002°10'0 0.0
2018-Jun-20 00:30N 41°22' E 002°10'0 0.0
2018-Jun-20 00:00N 41°22' E 002°10'0 0.0
2018-Jun-19 23:30N 41°22' E 002°10'0 0.0
2018-Jun-19 22:59N 41°22' E 002°10'0 0.0
2018-Jun-19 22:29N 41°22' E 002°10'0 0.0
2018-Jun-19 21:59N 41°22' E 002°10'0 0.0
2018-Jun-19 21:23N 41°22' E 002°10'0 0.0
2018-Jun-19 20:58N 41°22' E 002°10'0 0.0
2018-Jun-19 20:28N 41°22' E 002°10'0 0.0
2018-Jun-19 19:58N 41°22' E 002°10'0 0.0
2018-Jun-19 19:22N 41°22' E 002°10'0 0.0
2018-Jun-19 18:55N 41°22' E 002°10'0 0.0
2018-Jun-19 18:27N 41°22' E 002°10'1 1.3
2018-Jun-19 18:00N 41°21' E 002°10'3 5.8
2018-Jun-19 17:30N 41°18' E 002°11'4 7.8
2018-Jun-19 17:01N 41°15' E 002°14'15 9.4
2018-Jun-19 15:25N 41°06' E 002°29'910.0
2018-Jun-19 14:33N 41°00' E 002°38'110.2
2018-Jun-19 14:27N 40°59' E 002°39'510.2
2018-Jun-19 14:00N 40°56' E 002°44'  
2018-Jun-14 12:45N 36°56' E 023°38'8 9.7
2018-Jun-14 11:57N 37°02' E 023°43'4 9.6
2018-Jun-14 11:30N 37°06' E 023°46'10 9.7
2018-Jun-14 10:31N 37°14' E 023°52'010.1
2018-Jun-14 10:30N 37°14' E 023°52'  
2018-Jun-10 04:39N 40°43' E 029°22'1 8.6
2018-Jun-10 04:30N 40°43' E 029°20'6 9.5
2018-Jun-10 03:53N 40°42' E 029°12'4 9.9
2018-Jun-10 03:26N 40°42' E 029°06'  

Dump ship's entire track history